Wanderoos, Wisconsin
Current Conditions -  °F | °C
As of 2:55 PM on Thursday 23 Oct 2014 (Local Time) from KOEO Reporting Station
Clear Clear  
Wind Chill: 62°   Ceiling: Unl
Heat Index: 62°   Visibility: 10mi
Dew Point: 54°   Wind: 3mph
Humidity: 76%   Direction: 160°SSE
Pressure: 29.99"   Gusts: NA
Location:  45.3559°N, 92.3527°W
Report Text: KOEO 231955Z AUTO 16003KT 10SM CLR 17/12 A2999 RMK AO2 T01660123
Loading
Personal Weather Stations






























Interactive Weather Map
Tropical Storm Tracking
New forecast layout! Learn more

10-Day Weather Forecast

Advertisements
Track Severe Weather on mobile